createdAt,value
2022-11-16T00:01:14.755Z,20.00
2022-11-16T00:03:49.964Z,22.20
2022-11-16T00:06:24.888Z,20.00
2022-11-16T00:09:17.491Z,17.55
2022-11-16T00:11:52.415Z,20.65
2022-11-16T00:14:27.965Z,21.20
2022-11-16T00:17:02.005Z,20.67
2022-11-16T00:19:36.859Z,22.88
2022-11-16T00:22:10.522Z,21.08
2022-11-16T00:24:43.843Z,19.33
2022-11-16T00:27:17.566Z,21.02
2022-11-16T00:29:50.969Z,21.10
2022-11-16T00:32:24.661Z,18.65
2022-11-16T00:34:59.362Z,18.42
2022-11-16T00:37:32.974Z,17.10
2022-11-16T00:40:07.645Z,18.92
2022-11-16T00:42:41.357Z,16.50
2022-11-16T00:45:14.807Z,18.38
2022-11-16T00:47:48.625Z,18.50
2022-11-16T00:50:23.376Z,19.13
2022-11-16T00:52:57.178Z,16.05
2022-11-16T00:55:31.229Z,17.88
2022-11-16T00:58:04.911Z,16.92
2022-11-16T01:00:38.646Z,17.60
2022-11-16T01:03:12.965Z,16.88
2022-11-16T01:05:49.513Z,19.33
2022-11-16T01:08:22.838Z,20.38
2022-11-16T01:10:56.513Z,19.02
2022-11-16T01:13:29.033Z,19.98
2022-11-16T01:18:36.781Z,17.02
2022-11-16T01:21:11.981Z,17.75
2022-11-16T01:23:45.659Z,18.10
2022-11-16T01:26:19.375Z,18.80
2022-11-16T01:28:53.117Z,21.23
2022-11-16T01:31:26.863Z,20.95
2022-11-16T01:34:01.213Z,18.95
2022-11-16T01:36:37.348Z,18.58
2022-11-16T01:39:13.272Z,19.75
2022-11-16T01:41:52.581Z,21.42
2022-11-16T01:45:01.936Z,20.48
2022-11-16T01:47:36.482Z,19.48
2022-11-16T01:50:14.380Z,17.90
2022-11-16T01:52:55.548Z,21.90
2022-11-16T01:55:32.012Z,20.35
2022-11-16T01:58:30.721Z,20.20
2022-11-16T02:01:17.388Z,16.85
2022-11-16T02:03:56.258Z,20.55
2022-11-16T02:06:38.518Z,17.48
2022-11-16T02:09:54.486Z,19.10
2022-11-16T02:12:59.029Z,18.45
2022-11-16T02:15:46.394Z,17.40
2022-11-16T02:18:53.538Z,17.45
2022-11-16T02:21:36.217Z,18.52
2022-11-16T02:27:23.390Z,19.00
2022-11-16T02:29:58.794Z,19.80
2022-11-16T02:32:38.399Z,16.70
2022-11-16T02:35:15.859Z,21.58
2022-11-16T02:37:53.035Z,17.58
2022-11-16T02:40:31.146Z,17.40
2022-11-16T02:43:08.545Z,15.75
2022-11-16T02:45:48.261Z,16.85
2022-11-16T02:48:24.579Z,16.35
2022-11-16T02:50:58.363Z,15.50
2022-11-16T02:53:34.958Z,17.50
2022-11-16T02:56:08.796Z,16.73
2022-11-16T02:58:42.191Z,18.42
2022-11-16T03:01:23.296Z,15.48
2022-11-16T03:04:03.091Z,16.08
2022-11-16T03:06:41.568Z,17.60
2022-11-16T03:09:19.823Z,16.98
2022-11-16T03:12:03.228Z,16.08
2022-11-16T03:14:44.875Z,17.10
2022-11-16T03:17:28.956Z,17.98
2022-11-16T03:20:05.839Z,16.45
2022-11-16T03:22:44.750Z,17.58
2022-11-16T03:25:20.680Z,18.00
2022-11-16T03:28:04.994Z,18.35
2022-11-16T03:30:43.212Z,17.02
2022-11-16T03:33:23.024Z,14.50
2022-11-16T03:36:02.856Z,16.00
2022-11-16T03:38:41.963Z,14.85
2022-11-16T03:41:16.432Z,17.27
2022-11-16T03:43:51.386Z,16.88
2022-11-16T03:46:25.078Z,16.75
2022-11-16T03:49:02.222Z,14.13
2022-11-16T03:51:40.486Z,15.68
2022-11-16T03:54:14.056Z,16.33
2022-11-16T03:56:47.865Z,13.82
2022-11-16T03:59:21.503Z,14.05
2022-11-16T04:01:54.795Z,14.15
2022-11-16T04:04:47.268Z,16.23
2022-11-16T04:07:38.221Z,16.30
2022-11-16T04:10:29.242Z,15.52
2022-11-16T04:13:21.236Z,14.68
2022-11-16T04:16:26.376Z,15.70
2022-11-16T04:19:17.726Z,14.93
2022-11-16T04:22:13.719Z,17.85
2022-11-16T04:24:51.923Z,16.25
2022-11-16T04:27:47.585Z,18.15
2022-11-16T04:30:22.079Z,17.08
2022-11-16T04:33:13.324Z,15.90
2022-11-16T04:36:04.470Z,16.65
2022-11-16T04:38:39.177Z,16.88
2022-11-16T04:41:33.390Z,16.73
2022-11-16T04:44:06.734Z,14.57
2022-11-16T04:46:58.201Z,15.95
2022-11-16T04:49:31.913Z,15.38
2022-11-16T04:52:06.133Z,15.45
2022-11-16T04:54:41.452Z,16.02
2022-11-16T04:57:15.526Z,17.08
2022-11-16T04:59:49.301Z,14.90
2022-11-16T05:02:22.665Z,13.70
2022-11-16T05:05:00.556Z,17.05
2022-11-16T05:07:36.256Z,17.17
2022-11-16T05:10:18.285Z,16.00
2022-11-16T05:12:52.020Z,15.05
2022-11-16T05:15:25.513Z,15.55
2022-11-16T05:18:00.618Z,17.23
2022-11-16T05:20:56.781Z,14.65
2022-11-16T05:23:48.065Z,15.30
2022-11-16T05:26:25.675Z,15.20
2022-11-16T05:29:00.803Z,15.60
2022-11-16T05:31:40.210Z,12.63
2022-11-16T05:34:15.076Z,14.32
2022-11-16T05:36:48.618Z,13.52
2022-11-16T05:39:23.365Z,14.65
2022-11-16T05:41:59.625Z,14.70
2022-11-16T05:44:33.701Z,14.07
2022-11-16T05:47:07.280Z,16.60
2022-11-16T05:49:40.588Z,15.38
2022-11-16T05:52:14.621Z,16.42
2022-11-16T05:54:50.150Z,15.82
2022-11-16T05:57:25.003Z,14.77
2022-11-16T05:59:58.599Z,16.08
2022-11-16T06:02:33.997Z,15.43
2022-11-16T06:05:07.793Z,15.68
2022-11-16T06:07:41.626Z,18.70
2022-11-16T06:10:15.074Z,15.95
2022-11-16T06:12:52.303Z,14.55
2022-11-16T06:15:26.351Z,13.35
2022-11-16T06:17:59.650Z,14.13
2022-11-16T06:20:33.355Z,12.35
2022-11-16T06:23:06.858Z,13.90
2022-11-16T06:25:41.748Z,13.65
2022-11-16T06:28:17.299Z,13.13
2022-11-16T06:30:51.001Z,14.25
2022-11-16T06:33:24.700Z,14.25
2022-11-16T06:35:58.259Z,12.65
2022-11-16T06:38:31.861Z,15.43
2022-11-16T06:41:06.127Z,17.23
2022-11-16T06:43:46.659Z,16.48
2022-11-16T06:46:24.568Z,19.25
2022-11-16T06:48:58.191Z,15.77
2022-11-16T06:51:31.537Z,15.10
2022-11-16T06:54:05.373Z,13.68
2022-11-16T06:56:38.667Z,13.90
2022-11-16T06:59:14.646Z,15.40
2022-11-16T07:01:48.842Z,15.40
2022-11-16T07:04:22.438Z,14.55
2022-11-16T07:07:00.634Z,16.38
2022-11-16T07:09:34.082Z,15.27
2022-11-16T07:12:08.192Z,15.23
2022-11-16T07:14:46.523Z,14.88
2022-11-16T07:17:20.283Z,14.65
2022-11-16T07:19:53.532Z,14.95
2022-11-16T07:22:27.242Z,13.45
2022-11-16T07:25:00.693Z,15.75
2022-11-16T07:27:33.973Z,15.48
2022-11-16T07:30:10.198Z,15.32
2022-11-16T07:33:00.852Z,13.88
2022-11-16T07:35:52.598Z,13.90
2022-11-16T07:38:25.891Z,14.30
2022-11-16T07:41:01.470Z,13.73
2022-11-16T07:43:37.343Z,12.63
2022-11-16T07:46:45.500Z,14.60
2022-11-16T07:49:16.926Z,14.02
2022-11-16T07:52:03.241Z,14.75
2022-11-16T07:54:46.730Z,16.83
2022-11-16T07:57:21.481Z,13.25
2022-11-16T07:59:55.171Z,15.07
2022-11-16T08:02:30.581Z,16.00
2022-11-16T08:05:04.130Z,15.90
2022-11-16T08:07:37.684Z,15.88
2022-11-16T08:10:11.349Z,16.67
2022-11-16T08:12:45.958Z,16.08
2022-11-16T08:15:19.604Z,14.88
2022-11-16T08:17:55.161Z,14.13
2022-11-16T08:20:28.804Z,16.95
2022-11-16T08:23:02.327Z,14.05
2022-11-16T08:25:39.512Z,14.65
2022-11-16T08:28:14.501Z,15.73
2022-11-16T08:30:53.809Z,14.57
2022-11-16T08:33:30.668Z,11.82
2022-11-16T08:36:09.419Z,14.50
2022-11-16T08:38:46.265Z,13.93
2022-11-16T08:41:20.857Z,15.68
2022-11-16T08:43:54.600Z,14.57
2022-11-16T08:46:29.228Z,14.00
2022-11-16T08:49:13.671Z,12.48
2022-11-16T08:51:47.030Z,14.73
2022-11-16T08:54:20.390Z,15.00
2022-11-16T08:56:54.591Z,14.32
2022-11-16T08:59:28.059Z,14.60
2022-11-16T09:02:06.570Z,14.50
2022-11-16T09:04:42.401Z,13.50
2022-11-16T09:07:17.128Z,12.05
2022-11-16T09:09:50.608Z,12.82
2022-11-16T09:12:24.208Z,11.75
2022-11-16T09:14:58.568Z,12.43
2022-11-16T09:17:34.529Z,12.00
2022-11-16T09:20:10.286Z,11.25
2022-11-16T09:22:43.607Z,11.93
2022-11-16T09:25:19.111Z,13.73
2022-11-16T09:27:52.467Z,12.15
2022-11-16T09:30:25.733Z,12.35
2022-11-16T09:32:59.676Z,11.20
2022-11-16T09:35:35.091Z,11.82
2022-11-16T09:38:09.916Z,12.82
2022-11-16T09:40:47.374Z,12.35
2022-11-16T09:43:38.532Z,13.10
2022-11-16T09:46:23.961Z,12.45
2022-11-16T09:49:01.704Z,13.40
2022-11-16T09:51:38.514Z,12.45
2022-11-16T09:54:17.889Z,12.25
2022-11-16T09:56:54.802Z,13.90
2022-11-16T09:59:33.140Z,11.93
2022-11-16T10:02:19.881Z,11.48
2022-11-16T10:04:59.041Z,11.88
2022-11-16T10:07:41.614Z,11.65
2022-11-16T10:10:16.174Z,13.90
2022-11-16T10:12:54.579Z,11.48
2022-11-16T10:15:49.480Z,12.88
2022-11-16T10:18:37.265Z,10.32
2022-11-16T10:21:21.931Z,13.25
2022-11-16T10:24:14.847Z,11.80
2022-11-16T10:29:38.446Z,11.48
2022-11-16T10:32:19.777Z,10.98
2022-11-16T10:34:55.870Z,12.07
2022-11-16T10:37:32.569Z,11.95
2022-11-16T10:40:20.756Z,10.48
2022-11-16T10:43:02.116Z,10.18
2022-11-16T10:45:40.773Z,11.57
2022-11-16T10:48:23.530Z,12.02
2022-11-16T10:53:34.094Z,12.35
2022-11-16T10:56:23.262Z,11.52
2022-11-16T10:58:59.808Z,12.02
2022-11-16T11:01:36.918Z,10.63
2022-11-16T11:04:16.191Z,10.85
2022-11-16T11:06:52.417Z,11.00
2022-11-16T11:09:30.554Z,12.10
2022-11-16T11:12:34.944Z,12.38
2022-11-16T11:15:27.077Z,11.45
2022-11-16T11:18:19.146Z,12.88
2022-11-16T11:21:01.545Z,11.70
2022-11-16T11:23:43.665Z,11.93
2022-11-16T11:26:37.358Z,11.75
2022-11-16T11:29:25.694Z,12.80
2022-11-16T11:32:02.418Z,11.15
2022-11-16T11:34:41.928Z,11.38
2022-11-16T11:37:18.415Z,12.38
2022-11-16T11:40:06.650Z,9.75
2022-11-16T11:42:44.152Z,10.10
2022-11-16T11:45:20.914Z,10.68
2022-11-16T11:47:59.411Z,10.90
2022-11-16T11:50:49.606Z,11.43
2022-11-16T11:53:43.406Z,10.23
2022-11-16T11:56:16.948Z,9.20
2022-11-16T11:58:51.705Z,11.07
2022-11-16T12:01:48.346Z,10.30
2022-11-16T12:05:10.955Z,10.55
2022-11-16T12:08:03.912Z,11.02
2022-11-16T12:13:45.148Z,8.40
2022-11-16T12:16:28.027Z,8.15
2022-11-16T12:19:20.251Z,7.20
2022-11-16T12:22:07.010Z,7.32
2022-11-16T12:24:52.638Z,8.13
2022-11-16T12:27:35.381Z,8.45
2022-11-16T12:33:06.184Z,7.10
2022-11-16T12:35:48.660Z,8.85
2022-11-16T12:38:44.307Z,7.50
2022-11-16T12:41:53.101Z,8.23
2022-11-16T12:44:41.431Z,12.45
2022-11-16T12:47:24.748Z,15.88
2022-11-16T12:50:09.584Z,14.52
2022-11-16T12:52:57.546Z,15.43
2022-11-16T12:55:42.426Z,17.45
2022-11-16T12:58:24.553Z,12.43
2022-11-16T13:01:09.469Z,9.75
2022-11-16T13:03:48.039Z,13.85
2022-11-16T13:06:27.128Z,18.40
2022-11-16T13:09:08.593Z,12.05
2022-11-16T13:11:45.117Z,10.65
2022-11-16T13:14:21.987Z,10.68
2022-11-16T13:16:55.765Z,13.10
2022-11-16T13:19:30.054Z,12.15
2022-11-16T13:22:08.626Z,11.20
2022-11-16T13:24:51.136Z,9.23
2022-11-16T13:27:32.155Z,9.35
2022-11-16T13:30:14.788Z,15.27
2022-11-16T13:33:04.873Z,9.77
2022-11-16T13:35:39.382Z,11.18
2022-11-16T13:38:13.860Z,10.70
2022-11-16T13:40:48.701Z,10.85
2022-11-16T13:43:22.734Z,11.90
2022-11-16T13:45:59.329Z,13.02
2022-11-16T13:48:36.145Z,15.10
2022-11-16T13:51:18.481Z,16.58
2022-11-16T13:56:51.443Z,17.50
2022-11-16T13:59:27.665Z,12.98
2022-11-16T14:02:03.395Z,13.00
2022-11-16T14:04:55.793Z,14.10
2022-11-16T14:07:40.675Z,14.48
2022-11-16T14:10:52.686Z,13.35
2022-11-16T14:13:42.290Z,12.45
2022-11-16T14:16:55.607Z,14.05
2022-11-16T14:19:54.520Z,13.43
2022-11-16T14:22:56.532Z,13.10
2022-11-16T14:25:34.754Z,12.75
2022-11-16T14:28:23.396Z,12.02
2022-11-16T14:31:10.998Z,13.40
2022-11-16T14:33:49.455Z,12.73
2022-11-16T14:36:38.859Z,12.02
2022-11-16T14:39:17.958Z,12.88
2022-11-16T14:41:51.594Z,11.98
2022-11-16T14:44:29.605Z,12.30
2022-11-16T14:47:05.251Z,10.55
2022-11-16T14:49:46.877Z,10.35
2022-11-16T14:52:28.555Z,11.45
2022-11-16T14:55:06.483Z,11.88
2022-11-16T14:57:39.809Z,12.93
2022-11-16T15:00:21.915Z,14.02
2022-11-16T15:03:02.606Z,11.40
2022-11-16T15:05:37.707Z,12.45
2022-11-16T15:08:18.301Z,15.65
2022-11-16T15:10:52.701Z,18.85
2022-11-16T15:13:26.833Z,17.23
2022-11-16T15:16:10.155Z,17.33
2022-11-16T15:18:57.552Z,14.13
2022-11-16T15:21:30.905Z,13.82
2022-11-16T15:27:04.241Z,10.27
2022-11-16T15:29:37.929Z,10.52
2022-11-16T15:32:16.774Z,12.05
2022-11-16T15:34:54.924Z,12.43
2022-11-16T15:37:29.627Z,12.65
2022-11-16T15:40:03.639Z,11.35
2022-11-16T15:42:40.427Z,11.15
2022-11-16T15:45:22.397Z,12.25
2022-11-16T15:47:56.635Z,10.38
2022-11-16T15:50:31.775Z,10.50
2022-11-16T15:53:05.152Z,10.93
2022-11-16T15:55:41.154Z,10.07
2022-11-16T15:58:19.375Z,10.05
2022-11-16T16:00:54.075Z,10.63
2022-11-16T16:03:29.667Z,12.88
2022-11-16T16:06:05.685Z,12.25
2022-11-16T16:08:41.797Z,13.15
2022-11-16T16:11:28.802Z,12.05
2022-11-16T16:14:04.539Z,9.75
2022-11-16T16:16:40.318Z,13.13
2022-11-16T16:19:35.730Z,14.43
2022-11-16T16:22:25.479Z,10.45
2022-11-16T16:24:59.403Z,12.98
2022-11-16T16:27:39.460Z,13.70
2022-11-16T16:30:15.400Z,12.32
2022-11-16T16:32:50.892Z,13.32
2022-11-16T16:35:26.074Z,13.48
2022-11-16T16:38:02.410Z,17.50
2022-11-16T16:40:35.719Z,17.17
2022-11-16T16:43:09.079Z,15.05
2022-11-16T16:45:43.887Z,18.27
2022-11-16T16:48:17.245Z,16.75
2022-11-16T16:50:50.659Z,19.98
2022-11-16T16:53:25.512Z,31.95
2022-11-16T16:55:58.973Z,25.83
2022-11-16T16:58:32.350Z,21.70
2022-11-16T17:01:06.231Z,24.08
2022-11-16T17:03:39.898Z,12.70
2022-11-16T17:06:13.238Z,8.88
2022-11-16T17:08:48.127Z,9.77
2022-11-16T17:11:21.454Z,10.15
2022-11-16T17:13:54.763Z,10.20
2022-11-16T17:16:28.147Z,9.68
2022-11-16T17:19:02.022Z,14.77
2022-11-16T17:21:35.346Z,13.32
2022-11-16T17:24:10.410Z,12.05
2022-11-16T17:26:48.288Z,10.55
2022-11-16T17:29:21.756Z,8.90
2022-11-16T17:31:55.410Z,9.95
2022-11-16T17:34:28.886Z,9.85
2022-11-16T17:37:02.249Z,9.35
2022-11-16T17:39:37.084Z,11.10
2022-11-16T17:42:10.482Z,11.52
2022-11-16T17:44:43.807Z,9.45
2022-11-16T17:47:17.150Z,9.23
2022-11-16T17:49:50.490Z,8.40
2022-11-16T17:52:23.821Z,6.63
2022-11-16T17:54:58.556Z,9.00
2022-11-16T17:57:31.949Z,7.90
2022-11-16T18:00:06.459Z,8.55
2022-11-16T18:02:39.814Z,7.18
2022-11-16T18:05:13.135Z,8.75
2022-11-16T18:07:46.465Z,6.80
2022-11-16T18:10:21.167Z,6.60
2022-11-16T18:12:54.530Z,8.80
2022-11-16T18:15:28.965Z,8.00
2022-11-16T18:18:02.962Z,12.80
2022-11-16T18:20:38.181Z,11.07
2022-11-16T18:23:11.487Z,11.38
2022-11-16T18:25:46.150Z,14.25
2022-11-16T18:28:19.579Z,6.22
2022-11-16T18:30:53.193Z,6.20
2022-11-16T18:33:30.395Z,5.68
2022-11-16T18:36:04.466Z,5.38
2022-11-16T18:38:37.902Z,4.93
2022-11-16T18:41:19.848Z,6.00
2022-11-16T18:43:55.051Z,4.97
2022-11-16T18:46:30.314Z,4.80
2022-11-16T18:49:03.900Z,3.70
2022-11-16T18:51:37.281Z,3.15
2022-11-16T18:54:10.614Z,3.17
2022-11-16T18:56:53.259Z,3.33
2022-11-16T18:59:29.302Z,4.03
2022-11-16T19:02:02.638Z,4.38
2022-11-16T19:04:35.943Z,3.88
2022-11-16T19:07:09.313Z,24.30
2022-11-16T19:09:42.716Z,5.63
2022-11-16T19:12:17.434Z,6.93
2022-11-16T19:14:50.822Z,8.38
2022-11-16T19:17:24.961Z,5.88
2022-11-16T19:19:58.286Z,4.32
2022-11-16T19:22:34.099Z,5.78
2022-11-16T19:25:07.944Z,6.50
2022-11-16T19:27:42.645Z,5.22
2022-11-16T19:30:16.214Z,5.47
2022-11-16T19:32:49.755Z,2.75
2022-11-16T19:35:24.166Z,3.47
2022-11-16T19:37:57.510Z,4.57
2022-11-16T19:40:30.890Z,4.80
2022-11-16T19:43:05.553Z,5.63
2022-11-16T19:45:39.076Z,5.60
2022-11-16T19:48:12.391Z,8.32
2022-11-16T19:50:45.798Z,9.25
2022-11-16T19:53:19.160Z,15.23
2022-11-16T19:55:55.455Z,11.00
2022-11-16T19:58:31.088Z,19.10
2022-11-16T20:01:06.443Z,20.10
2022-11-16T20:03:40.535Z,15.32
2022-11-16T20:06:16.141Z,16.52
2022-11-16T20:08:51.263Z,14.15
2022-11-16T20:11:25.927Z,9.68
2022-11-16T20:14:01.285Z,9.07
2022-11-16T20:16:38.942Z,5.82
2022-11-16T20:19:12.906Z,7.22
2022-11-16T20:21:46.244Z,7.22
2022-11-16T20:24:19.742Z,8.55
2022-11-16T20:26:53.098Z,7.80
2022-11-16T20:29:27.822Z,14.13
2022-11-16T20:32:01.148Z,7.40
2022-11-16T20:34:34.423Z,8.63
2022-11-16T20:37:08.675Z,6.90
2022-11-16T20:39:42.349Z,6.38
2022-11-16T20:42:15.667Z,7.90
2022-11-16T20:44:50.382Z,6.25
2022-11-16T20:47:23.742Z,4.82
2022-11-16T20:49:58.791Z,3.38
2022-11-16T20:52:32.225Z,3.55
2022-11-16T20:55:06.078Z,5.93
2022-11-16T20:57:39.565Z,3.67
2022-11-16T21:00:16.192Z,3.50
2022-11-16T21:02:49.550Z,4.00
2022-11-16T21:05:22.919Z,2.40
2022-11-16T21:07:56.326Z,1.80
2022-11-16T21:10:31.131Z,1.95
2022-11-16T21:13:22.765Z,2.25
2022-11-16T21:15:58.497Z,3.72
2022-11-16T21:18:32.825Z,4.00
2022-11-16T21:21:07.887Z,2.10
2022-11-16T21:23:43.151Z,3.08
2022-11-16T21:26:16.786Z,1.83
2022-11-16T21:28:50.295Z,3.45
2022-11-16T21:31:26.662Z,4.03
2022-11-16T21:34:00.995Z,3.33
2022-11-16T21:36:36.170Z,2.92
2022-11-16T21:39:09.494Z,2.88
2022-11-16T21:41:42.776Z,3.53
2022-11-16T21:44:16.097Z,7.05
2022-11-16T21:46:50.740Z,8.05
2022-11-16T21:49:24.533Z,2.97
2022-11-16T21:51:57.926Z,2.03
2022-11-16T21:54:47.380Z,2.60
2022-11-16T21:57:20.649Z,5.10
2022-11-16T21:59:53.926Z,3.58
2022-11-16T22:02:28.586Z,2.70
2022-11-16T22:05:19.249Z,5.97
2022-11-16T22:07:52.530Z,6.32
2022-11-16T22:10:25.772Z,6.63
2022-11-16T22:12:59.076Z,5.63
2022-11-16T22:15:32.443Z,3.03
2022-11-16T22:18:07.423Z,2.20
2022-11-16T22:20:41.009Z,8.18
2022-11-16T22:23:17.451Z,1.23
2022-11-16T22:25:55.324Z,9.65
2022-11-16T22:28:28.765Z,3.25
2022-11-16T22:31:03.201Z,2.22
2022-11-16T22:33:38.854Z,7.68
2022-11-16T22:36:13.433Z,3.05
2022-11-16T22:38:47.055Z,6.32
2022-11-16T22:41:20.885Z,5.13
2022-11-16T22:43:54.456Z,1.77
2022-11-16T22:46:27.804Z,1.75
2022-11-16T22:49:02.663Z,1.77
2022-11-16T22:51:36.039Z,0.75
2022-11-16T22:54:12.570Z,0.77
2022-11-16T22:56:45.933Z,0.50
2022-11-16T22:59:19.313Z,0.90
2022-11-16T23:01:52.709Z,0.40
2022-11-16T23:04:27.475Z,1.30
2022-11-16T23:07:00.860Z,0.73
2022-11-16T23:09:34.520Z,0.50
2022-11-16T23:12:25.651Z,0.55
2022-11-16T23:15:31.119Z,0.60
2022-11-16T23:18:04.580Z,0.77
2022-11-16T23:20:56.803Z,0.40
2022-11-16T23:23:47.621Z,0.45
2022-11-16T23:26:41.945Z,0.30
2022-11-16T23:29:15.392Z,0.38
2022-11-16T23:31:48.764Z,0.95
2022-11-16T23:34:22.083Z,1.42
2022-11-16T23:37:02.287Z,0.43
2022-11-16T23:39:35.876Z,0.70
2022-11-16T23:42:26.790Z,0.47
2022-11-16T23:45:00.279Z,0.73
2022-11-16T23:47:33.671Z,0.63
2022-11-16T23:50:07.607Z,0.35
2022-11-16T23:52:42.320Z,0.50
2022-11-16T23:55:15.814Z,0.47
2022-11-16T23:57:49.471Z,0.47
